createdAt,value
2022-10-22T00:00:45.619Z,53.26
2022-10-22T00:03:12.067Z,53.44
2022-10-22T00:05:38.555Z,53.71
2022-10-22T00:08:05.008Z,53.48
2022-10-22T00:10:31.406Z,53.13
2022-10-22T00:12:57.772Z,53.46
2022-10-22T00:15:25.309Z,53.67
2022-10-22T00:17:51.770Z,53.43
2022-10-22T00:20:18.233Z,53.11
2022-10-22T00:22:44.716Z,53.25
2022-10-22T00:25:11.098Z,53.15
2022-10-22T00:27:37.688Z,53.09
2022-10-22T00:30:04.450Z,53.02
2022-10-22T00:32:30.886Z,53.23
2022-10-22T00:34:57.291Z,52.80
2022-10-22T00:37:23.661Z,52.82
2022-10-22T00:39:50.077Z,53.21
2022-10-22T00:42:20.993Z,52.99
2022-10-22T00:45:05.704Z,52.92
2022-10-22T00:47:42.775Z,52.81
2022-10-22T00:50:15.755Z,53.18
2022-10-22T00:52:42.539Z,52.95
2022-10-22T00:55:09.773Z,52.99
2022-10-22T00:57:36.564Z,53.11
2022-10-22T01:00:04.542Z,52.91
2022-10-22T01:02:31.054Z,53.02
2022-10-22T01:04:57.453Z,53.37
2022-10-22T01:07:24.524Z,53.59
2022-10-22T01:09:50.840Z,53.58
2022-10-22T01:12:26.245Z,53.34
2022-10-22T01:15:14.804Z,53.15
2022-10-22T01:17:47.294Z,53.70
2022-10-22T01:20:32.833Z,54.28
2022-10-22T01:23:01.949Z,54.00
2022-10-22T01:25:35.871Z,54.08
2022-10-22T01:28:19.792Z,53.99
2022-10-22T01:30:47.127Z,53.98
2022-10-22T01:33:15.415Z,53.94
2022-10-22T01:35:43.732Z,53.88
2022-10-22T01:38:12.833Z,53.46
2022-10-22T01:40:39.765Z,53.43
2022-10-22T01:43:07.652Z,53.25
2022-10-22T01:45:38.463Z,53.61
2022-10-22T01:48:22.925Z,53.50
2022-10-22T01:51:08.363Z,53.75
2022-10-22T01:53:49.321Z,53.66
2022-10-22T01:56:15.640Z,53.91
2022-10-22T01:58:41.998Z,54.01
2022-10-22T02:01:20.604Z,54.10
2022-10-22T02:03:59.847Z,53.70
2022-10-22T02:06:27.692Z,53.44
2022-10-22T02:08:54.541Z,53.37
2022-10-22T02:11:21.266Z,53.58
2022-10-22T02:13:49.536Z,53.47
2022-10-22T02:16:19.414Z,53.38
2022-10-22T02:18:47.771Z,53.14
2022-10-22T02:21:14.476Z,53.16
2022-10-22T02:23:40.954Z,53.43
2022-10-22T02:26:11.482Z,53.38
2022-10-22T02:28:58.548Z,53.24
2022-10-22T02:31:27.929Z,53.38
2022-10-22T02:33:56.356Z,53.32
2022-10-22T02:36:23.768Z,53.28
2022-10-22T02:38:51.390Z,53.35
2022-10-22T02:41:18.405Z,53.32
2022-10-22T02:43:48.794Z,53.31
2022-10-22T02:46:15.204Z,53.03
2022-10-22T02:48:41.660Z,53.36
2022-10-22T02:51:08.012Z,53.29
2022-10-22T02:53:34.422Z,53.04
2022-10-22T02:56:00.781Z,53.65
2022-10-22T02:58:27.175Z,53.91
2022-10-22T03:00:53.677Z,53.95
2022-10-22T03:03:20.097Z,53.67
2022-10-22T03:05:46.424Z,53.86
2022-10-22T03:08:13.048Z,53.77
2022-10-22T03:10:39.385Z,53.48
2022-10-22T03:13:05.717Z,53.50
2022-10-22T03:15:32.126Z,53.34
2022-10-22T03:17:58.663Z,53.85
2022-10-22T03:20:25.010Z,54.64
2022-10-22T03:22:51.375Z,54.25
2022-10-22T03:25:19.776Z,54.39
2022-10-22T03:27:46.655Z,54.37
2022-10-22T03:30:13.069Z,54.41
2022-10-22T03:32:39.433Z,54.17
2022-10-22T03:35:06.321Z,54.46
2022-10-22T03:37:33.238Z,54.39
2022-10-22T03:39:59.799Z,53.93
2022-10-22T03:42:26.265Z,53.85
2022-10-22T03:44:52.950Z,53.54
2022-10-22T03:47:19.435Z,53.67
2022-10-22T03:49:45.799Z,53.88
2022-10-22T03:52:13.148Z,53.50
2022-10-22T03:54:39.800Z,53.75
2022-10-22T03:57:06.733Z,53.80
2022-10-22T03:59:36.867Z,54.19
2022-10-22T04:02:03.297Z,54.07
2022-10-22T04:04:29.777Z,54.66
2022-10-22T04:06:56.353Z,54.42
2022-10-22T04:09:22.848Z,54.05
2022-10-22T04:11:49.251Z,53.88
2022-10-22T04:14:15.588Z,53.88
2022-10-22T04:16:42.153Z,53.83
2022-10-22T04:19:08.774Z,54.26
2022-10-22T04:21:35.630Z,53.93
2022-10-22T04:24:02.012Z,54.06
2022-10-22T04:26:28.394Z,53.95
2022-10-22T04:28:54.875Z,54.09
2022-10-22T04:31:23.048Z,53.92
2022-10-22T04:33:56.827Z,53.82
2022-10-22T04:36:23.600Z,53.88
2022-10-22T04:38:57.442Z,53.70
2022-10-22T04:41:26.230Z,53.75
2022-10-22T04:43:53.309Z,53.65
2022-10-22T04:46:20.151Z,53.83
2022-10-22T04:48:46.903Z,54.74
2022-10-22T04:51:18.463Z,54.76
2022-10-22T04:53:45.368Z,54.98
2022-10-22T04:56:11.748Z,54.51
2022-10-22T04:58:38.531Z,54.84
2022-10-22T05:01:12.053Z,54.63
2022-10-22T05:03:38.578Z,54.60
2022-10-22T05:06:05.144Z,54.00
2022-10-22T05:08:31.611Z,53.84
2022-10-22T05:10:58.037Z,53.79
2022-10-22T05:13:24.370Z,53.71
2022-10-22T05:15:50.696Z,53.43
2022-10-22T05:18:19.058Z,53.70
2022-10-22T05:20:48.280Z,53.65
2022-10-22T05:23:14.722Z,53.50
2022-10-22T05:25:41.096Z,53.50
2022-10-22T05:28:07.436Z,53.34
2022-10-22T05:30:33.779Z,53.58
2022-10-22T05:33:00.138Z,53.46
2022-10-22T05:35:26.490Z,53.41
2022-10-22T05:37:52.866Z,53.42
2022-10-22T05:40:30.640Z,53.36
2022-10-22T05:42:58.449Z,53.24
2022-10-22T05:45:24.836Z,53.71
2022-10-22T05:47:51.243Z,53.81
2022-10-22T05:50:17.617Z,54.10
2022-10-22T05:52:44.126Z,54.34
2022-10-22T05:55:10.625Z,54.63
2022-10-22T05:57:37.067Z,54.49
2022-10-22T06:00:03.861Z,54.72
2022-10-22T06:02:30.304Z,54.54
2022-10-22T06:04:56.828Z,54.56
2022-10-22T06:07:23.306Z,54.61
2022-10-22T06:09:50.301Z,54.34
2022-10-22T06:12:16.907Z,54.38
2022-10-22T06:14:43.253Z,54.44
2022-10-22T06:17:09.616Z,54.06
2022-10-22T06:19:36.435Z,54.18
2022-10-22T06:22:03.582Z,53.94
2022-10-22T06:24:30.165Z,54.14
2022-10-22T06:26:56.635Z,53.82
2022-10-22T06:29:23.060Z,53.72
2022-10-22T06:31:49.614Z,53.88
2022-10-22T06:34:18.749Z,53.81
2022-10-22T06:36:45.522Z,53.83
2022-10-22T06:39:12.936Z,53.43
2022-10-22T06:41:39.326Z,53.52
2022-10-22T06:44:05.700Z,54.09
2022-10-22T06:46:32.248Z,53.68
2022-10-22T06:49:02.932Z,54.34
2022-10-22T06:51:29.707Z,54.35
2022-10-22T06:53:56.573Z,53.95
2022-10-22T06:56:24.066Z,54.07
2022-10-22T06:58:51.435Z,54.25
2022-10-22T07:01:19.251Z,54.48
2022-10-22T07:03:45.664Z,54.64
2022-10-22T07:06:13.018Z,54.79
2022-10-22T07:08:39.853Z,54.88
2022-10-22T07:11:07.892Z,55.26
2022-10-22T07:13:34.332Z,55.23
2022-10-22T07:16:00.665Z,55.08
2022-10-22T07:18:27.082Z,55.07
2022-10-22T07:20:53.509Z,54.98
2022-10-22T07:23:19.915Z,54.96
2022-10-22T07:25:46.447Z,54.91
2022-10-22T07:28:13.688Z,54.89
2022-10-22T07:30:40.505Z,54.85
2022-10-22T07:33:06.911Z,55.36
2022-10-22T07:35:34.508Z,55.09
2022-10-22T07:38:01.358Z,55.11
2022-10-22T07:40:27.778Z,55.16
2022-10-22T07:42:54.123Z,55.06
2022-10-22T07:45:20.463Z,55.10
2022-10-22T07:47:47.378Z,55.22
2022-10-22T07:50:14.257Z,55.83
2022-10-22T07:52:40.858Z,55.89
2022-10-22T07:55:07.525Z,56.17
2022-10-22T07:57:33.975Z,56.03
2022-10-22T08:00:00.806Z,55.14
2022-10-22T08:02:27.156Z,54.82
2022-10-22T08:04:53.630Z,54.34
2022-10-22T08:07:20.096Z,54.42
2022-10-22T08:09:46.577Z,54.04
2022-10-22T08:12:13.187Z,53.94
2022-10-22T08:14:39.683Z,53.87
2022-10-22T08:17:06.147Z,53.54
2022-10-22T08:19:33.008Z,53.26
2022-10-22T08:21:59.772Z,53.20
2022-10-22T08:24:27.051Z,53.28
2022-10-22T08:26:55.702Z,53.23
2022-10-22T08:29:23.224Z,52.99
2022-10-22T08:31:49.764Z,52.97
2022-10-22T08:34:16.415Z,52.96
2022-10-22T08:36:42.800Z,52.93
2022-10-22T08:39:09.464Z,52.82
2022-10-22T08:41:42.901Z,52.96
2022-10-22T08:44:12.254Z,52.94
2022-10-22T08:46:38.648Z,52.77
2022-10-22T08:51:40.542Z,52.78
2022-10-22T08:54:19.394Z,52.88
2022-10-22T08:56:51.215Z,52.78
2022-10-22T08:59:20.182Z,52.70
2022-10-22T09:01:47.828Z,52.87
2022-10-22T09:04:25.497Z,52.76
2022-10-22T09:06:53.688Z,52.65
2022-10-22T09:09:21.639Z,52.82
2022-10-22T09:11:49.867Z,52.65
2022-10-22T09:14:17.567Z,52.52
2022-10-22T09:16:50.094Z,52.56
2022-10-22T09:19:19.587Z,52.61
2022-10-22T09:21:55.176Z,52.77
2022-10-22T09:24:21.916Z,52.61
2022-10-22T09:26:48.364Z,52.67
2022-10-22T09:29:20.986Z,52.75
2022-10-22T09:31:47.695Z,52.67
2022-10-22T09:34:15.302Z,52.92
2022-10-22T09:36:41.733Z,52.73
2022-10-22T09:39:22.776Z,52.83
2022-10-22T09:41:49.254Z,52.72
2022-10-22T09:44:15.741Z,52.94
2022-10-22T09:46:45.499Z,52.90
2022-10-22T09:49:19.555Z,53.01
2022-10-22T09:51:49.094Z,52.81
2022-10-22T09:54:18.113Z,52.89
2022-10-22T09:56:48.400Z,53.08
2022-10-22T09:59:19.292Z,53.39
2022-10-22T10:01:45.829Z,53.59
2022-10-22T10:04:13.825Z,53.46
2022-10-22T10:06:41.930Z,53.70
2022-10-22T10:09:34.796Z,53.59
2022-10-22T10:12:12.787Z,53.80
2022-10-22T10:14:46.201Z,53.93
2022-10-22T10:17:15.643Z,53.83
2022-10-22T10:19:47.537Z,54.02
2022-10-22T10:22:16.940Z,54.02
2022-10-22T10:24:50.447Z,54.10
2022-10-22T10:27:27.599Z,53.98
2022-10-22T10:30:02.951Z,53.90
2022-10-22T10:32:32.508Z,53.93
2022-10-22T10:34:58.862Z,53.88
2022-10-22T10:37:28.025Z,53.90
2022-10-22T10:40:12.751Z,54.02
2022-10-22T10:42:57.951Z,53.78
2022-10-22T10:45:24.295Z,53.97
2022-10-22T10:48:09.436Z,54.10
2022-10-22T10:50:44.948Z,53.89
2022-10-22T10:53:26.442Z,53.96
2022-10-22T10:56:11.585Z,53.89
2022-10-22T10:58:43.228Z,53.90
2022-10-22T11:01:09.812Z,53.74
2022-10-22T11:03:55.196Z,53.93
2022-10-22T11:06:25.358Z,53.71
2022-10-22T11:08:58.367Z,53.71
2022-10-22T11:11:44.278Z,53.71
2022-10-22T11:14:13.707Z,53.66
2022-10-22T11:16:46.706Z,53.56
2022-10-22T11:19:22.715Z,53.73
2022-10-22T11:22:06.013Z,53.82
2022-10-22T11:24:47.586Z,53.70
2022-10-22T11:27:20.199Z,53.54
2022-10-22T11:29:49.707Z,53.61
2022-10-22T11:32:19.680Z,53.71
2022-10-22T11:34:51.534Z,53.62
2022-10-22T11:37:18.622Z,53.65
2022-10-22T11:39:47.852Z,53.53
2022-10-22T11:42:31.872Z,53.78
2022-10-22T11:45:00.762Z,53.57
2022-10-22T11:47:34.967Z,53.70
2022-10-22T11:50:20.112Z,53.58
2022-10-22T11:52:54.330Z,53.62
2022-10-22T11:55:33.275Z,53.49
2022-10-22T11:58:01.168Z,53.71
2022-10-22T12:00:35.582Z,53.44
2022-10-22T12:03:03.634Z,53.52
2022-10-22T12:05:34.876Z,53.77
2022-10-22T12:08:21.524Z,53.54
2022-10-22T12:10:51.110Z,53.56
2022-10-22T12:13:24.782Z,53.74
2022-10-22T12:15:56.666Z,53.58
2022-10-22T12:18:33.055Z,53.53
2022-10-22T12:20:59.458Z,53.86
2022-10-22T12:23:29.533Z,53.71
2022-10-22T12:25:56.530Z,53.64
2022-10-22T12:28:23.123Z,54.05
2022-10-22T12:30:49.506Z,53.95
2022-10-22T12:33:23.325Z,53.77
2022-10-22T12:35:52.998Z,53.73
2022-10-22T12:38:21.528Z,53.90
2022-10-22T12:40:50.211Z,53.67
2022-10-22T12:43:18.041Z,53.71
2022-10-22T12:45:45.724Z,53.65
2022-10-22T12:48:20.484Z,53.81
2022-10-22T12:50:54.597Z,53.85
2022-10-22T12:53:21.047Z,53.92
2022-10-22T12:55:49.487Z,53.79
2022-10-22T12:58:25.068Z,53.94
2022-10-22T13:00:54.627Z,53.61
2022-10-22T13:03:44.866Z,53.70
2022-10-22T13:06:20.547Z,53.54
2022-10-22T13:08:59.419Z,53.69
2022-10-22T13:11:33.959Z,53.95
2022-10-22T13:14:17.989Z,53.85
2022-10-22T13:17:02.314Z,53.60
2022-10-22T13:19:38.004Z,53.63
2022-10-22T13:22:04.779Z,53.76
2022-10-22T13:24:31.262Z,53.41
2022-10-22T13:26:57.777Z,53.78
2022-10-22T13:29:24.808Z,53.56
2022-10-22T13:31:52.137Z,53.63
2022-10-22T13:34:24.034Z,53.88
2022-10-22T13:36:50.702Z,53.57
2022-10-22T13:39:20.990Z,53.52
2022-10-22T13:41:47.940Z,53.53
2022-10-22T13:44:14.323Z,53.55
2022-10-22T13:46:42.968Z,53.50
2022-10-22T13:49:20.594Z,53.71
2022-10-22T13:51:47.265Z,53.61
2022-10-22T13:54:15.977Z,53.34
2022-10-22T13:56:42.426Z,53.58
2022-10-22T13:59:09.507Z,53.33
2022-10-22T14:01:36.497Z,53.56
2022-10-22T14:04:04.150Z,53.38
2022-10-22T14:06:31.462Z,53.50
2022-10-22T14:09:00.226Z,53.35
2022-10-22T14:11:31.250Z,53.44
2022-10-22T14:13:57.617Z,53.24
2022-10-22T14:16:25.099Z,53.34
2022-10-22T14:18:51.695Z,53.49
2022-10-22T14:21:18.486Z,53.27
2022-10-22T14:23:45.867Z,53.52
2022-10-22T14:26:38.648Z,53.26
2022-10-22T14:29:09.410Z,53.46
2022-10-22T14:31:37.425Z,53.25
2022-10-22T14:34:03.839Z,54.07
2022-10-22T14:36:30.238Z,54.30
2022-10-22T14:38:56.751Z,54.43
2022-10-22T14:41:24.245Z,54.27
2022-10-22T14:43:51.616Z,54.40
2022-10-22T14:46:18.806Z,54.33
2022-10-22T14:48:45.474Z,54.20
2022-10-22T14:51:16.336Z,54.39
2022-10-22T14:53:43.058Z,54.35
2022-10-22T14:56:11.699Z,54.56
2022-10-22T14:58:38.278Z,54.71
2022-10-22T15:01:04.967Z,54.81
2022-10-22T15:03:31.587Z,54.75
2022-10-22T15:05:58.112Z,54.62
2022-10-22T15:08:25.336Z,55.06
2022-10-22T15:11:02.130Z,54.78
2022-10-22T15:13:29.241Z,54.77
2022-10-22T15:15:56.215Z,55.13
2022-10-22T15:18:23.412Z,55.15
2022-10-22T15:20:59.982Z,55.13
2022-10-22T15:23:26.350Z,54.99
2022-10-22T15:25:52.831Z,55.14
2022-10-22T15:28:19.364Z,55.34
2022-10-22T15:30:51.524Z,55.07
2022-10-22T15:33:17.963Z,55.30
2022-10-22T15:35:44.289Z,55.38
2022-10-22T15:38:10.667Z,55.41
2022-10-22T15:40:36.993Z,55.43
2022-10-22T15:43:03.385Z,55.36
2022-10-22T15:45:29.806Z,55.48
2022-10-22T15:47:56.140Z,55.39
2022-10-22T15:50:22.515Z,55.22
2022-10-22T15:52:48.927Z,55.45
2022-10-22T15:55:15.459Z,55.60
2022-10-22T15:57:42.022Z,55.65
2022-10-22T16:00:08.849Z,55.82
2022-10-22T16:02:35.201Z,55.62
2022-10-22T16:05:01.697Z,55.78
2022-10-22T16:07:28.168Z,55.75
2022-10-22T16:09:58.229Z,55.74
2022-10-22T16:12:24.660Z,55.71
2022-10-22T16:14:51.240Z,55.81
2022-10-22T16:17:17.899Z,55.64
2022-10-22T16:19:44.243Z,55.92
2022-10-22T16:22:13.724Z,55.70
2022-10-22T16:24:42.999Z,55.74
2022-10-22T16:27:09.933Z,55.83
2022-10-22T16:29:40.089Z,55.96
2022-10-22T16:32:06.744Z,55.87
2022-10-22T16:34:33.160Z,56.02
2022-10-22T16:36:59.531Z,56.16
2022-10-22T16:39:25.976Z,56.04
2022-10-22T16:41:52.419Z,55.96
2022-10-22T16:44:18.880Z,56.10
2022-10-22T16:46:45.279Z,55.97
2022-10-22T16:49:11.786Z,56.11
2022-10-22T16:51:39.270Z,56.26
2022-10-22T16:54:08.391Z,56.26
2022-10-22T16:56:37.891Z,55.92
2022-10-22T16:59:04.355Z,55.92
2022-10-22T17:01:31.692Z,55.95
2022-10-22T17:04:01.394Z,56.00
2022-10-22T17:06:27.814Z,56.21
2022-10-22T17:08:54.356Z,55.89
2022-10-22T17:11:22.025Z,56.21
2022-10-22T17:13:49.683Z,56.09
2022-10-22T17:16:17.983Z,56.26
2022-10-22T17:21:18.035Z,56.24
2022-10-22T17:23:44.798Z,56.25
2022-10-22T17:26:22.624Z,56.11
2022-10-22T17:28:49.562Z,56.43
2022-10-22T17:31:20.860Z,56.42
2022-10-22T17:33:48.280Z,56.37
2022-10-22T17:36:14.824Z,56.27
2022-10-22T17:38:41.791Z,56.12
2022-10-22T17:41:11.473Z,56.18
2022-10-22T17:43:40.973Z,56.23
2022-10-22T17:46:10.662Z,56.30
2022-10-22T17:48:37.085Z,56.43
2022-10-22T17:51:09.992Z,56.17
2022-10-22T17:53:38.223Z,56.10
2022-10-22T17:56:07.126Z,56.22
2022-10-22T17:58:33.523Z,56.05
2022-10-22T18:01:00.224Z,56.10
2022-10-22T18:03:27.867Z,56.20
2022-10-22T18:05:54.870Z,56.54
2022-10-22T18:08:23.382Z,56.59
2022-10-22T18:10:49.763Z,56.69
2022-10-22T18:13:16.132Z,56.59
2022-10-22T18:15:42.535Z,56.87
2022-10-22T18:18:09.718Z,56.55
2022-10-22T18:20:36.105Z,56.31
2022-10-22T18:23:03.673Z,56.30
2022-10-22T18:25:31.752Z,56.10
2022-10-22T18:27:58.190Z,56.25
2022-10-22T18:30:24.537Z,56.14
2022-10-22T18:32:51.803Z,55.98
2022-10-22T18:35:18.242Z,56.02
2022-10-22T18:37:44.861Z,56.17
2022-10-22T18:40:14.610Z,56.37
2022-10-22T18:42:41.522Z,56.16
2022-10-22T18:45:08.301Z,56.25
2022-10-22T18:47:34.699Z,56.14
2022-10-22T18:50:01.134Z,56.17
2022-10-22T18:52:27.560Z,56.32
2022-10-22T18:54:54.403Z,56.37
2022-10-22T18:57:20.829Z,56.10
2022-10-22T18:59:47.224Z,55.96
2022-10-22T19:02:17.047Z,56.03
2022-10-22T19:04:43.836Z,55.98
2022-10-22T19:07:11.066Z,56.09
2022-10-22T19:09:37.567Z,56.25
2022-10-22T19:12:04.059Z,56.03
2022-10-22T19:14:30.483Z,56.01
2022-10-22T19:16:56.926Z,55.97
2022-10-22T19:19:24.356Z,56.15
2022-10-22T19:21:51.032Z,56.18
2022-10-22T19:24:18.743Z,55.99
2022-10-22T19:26:45.572Z,55.96
2022-10-22T19:29:14.523Z,56.03
2022-10-22T19:31:41.688Z,55.92
2022-10-22T19:34:08.155Z,56.11
2022-10-22T19:36:35.457Z,56.07
2022-10-22T19:39:02.453Z,55.96
2022-10-22T19:41:30.214Z,56.16
2022-10-22T19:43:57.257Z,56.02
2022-10-22T19:46:25.612Z,56.16
2022-10-22T19:48:52.816Z,56.20
2022-10-22T19:51:20.664Z,55.95
2022-10-22T19:53:47.598Z,56.09
2022-10-22T19:56:17.024Z,55.94
2022-10-22T19:58:43.498Z,56.16
2022-10-22T20:01:11.687Z,55.99
2022-10-22T20:03:38.655Z,56.12
2022-10-22T20:06:06.278Z,55.87
2022-10-22T20:08:35.850Z,55.87
2022-10-22T20:11:02.723Z,55.92
2022-10-22T20:13:29.469Z,55.84
2022-10-22T20:15:56.438Z,55.92
2022-10-22T20:18:23.392Z,55.80
2022-10-22T20:20:49.964Z,55.97
2022-10-22T20:23:16.505Z,56.02
2022-10-22T20:25:43.937Z,55.87
2022-10-22T20:28:11.002Z,56.09
2022-10-22T20:30:46.721Z,55.98
2022-10-22T20:33:13.575Z,55.74
2022-10-22T20:35:40.105Z,55.97
2022-10-22T20:38:07.500Z,55.78
2022-10-22T20:40:34.136Z,55.90
2022-10-22T20:43:01.259Z,55.97
2022-10-22T20:45:28.412Z,55.99
2022-10-22T20:48:02.174Z,55.70
2022-10-22T20:50:31.407Z,55.99
2022-10-22T20:52:58.049Z,55.75
2022-10-22T20:55:24.451Z,55.92
2022-10-22T20:57:50.862Z,55.84
2022-10-22T21:00:17.309Z,55.74
2022-10-22T21:02:43.696Z,55.76
2022-10-22T21:05:10.181Z,55.74
2022-10-22T21:07:36.572Z,55.69
2022-10-22T21:10:03.833Z,55.85
2022-10-22T21:12:30.266Z,55.78
2022-10-22T21:14:56.695Z,55.72
2022-10-22T21:17:23.137Z,55.58
2022-10-22T21:19:49.574Z,55.89
2022-10-22T21:22:15.982Z,55.74
2022-10-22T21:24:42.515Z,55.59
2022-10-22T21:27:09.073Z,55.82
2022-10-22T21:29:35.603Z,55.83
2022-10-22T21:32:01.970Z,55.71
2022-10-22T21:34:28.377Z,55.70
2022-10-22T21:36:54.817Z,55.83
2022-10-22T21:39:21.280Z,55.90
2022-10-22T21:41:47.657Z,55.72
2022-10-22T21:44:14.263Z,55.79
2022-10-22T21:46:40.812Z,55.76
2022-10-22T21:49:07.328Z,56.10
2022-10-22T21:51:35.400Z,56.13
2022-10-22T21:54:01.862Z,56.20
2022-10-22T21:56:29.621Z,56.13
2022-10-22T21:58:56.062Z,56.11
2022-10-22T22:01:22.761Z,55.92
2022-10-22T22:03:49.874Z,56.07
2022-10-22T22:06:21.106Z,56.08
2022-10-22T22:08:48.848Z,56.18
2022-10-22T22:11:16.879Z,56.32
2022-10-22T22:13:43.612Z,56.16
2022-10-22T22:16:11.610Z,56.28
2022-10-22T22:18:39.019Z,56.45
2022-10-22T22:21:06.783Z,56.47
2022-10-22T22:23:33.412Z,56.72
2022-10-22T22:26:00.873Z,56.60
2022-10-22T22:28:29.035Z,56.66
2022-10-22T22:30:55.890Z,56.52
2022-10-22T22:33:22.660Z,56.63
2022-10-22T22:35:49.066Z,56.91
2022-10-22T22:38:15.507Z,56.83
2022-10-22T22:40:42.077Z,56.72
2022-10-22T22:43:08.635Z,56.95
2022-10-22T22:45:35.604Z,57.03
2022-10-22T22:48:02.495Z,56.72
2022-10-22T22:50:28.891Z,56.67
2022-10-22T22:52:55.367Z,56.74
2022-10-22T22:55:21.783Z,56.68
2022-10-22T22:57:48.158Z,56.77
2022-10-22T23:00:14.693Z,56.46
2022-10-22T23:02:41.280Z,56.75
2022-10-22T23:05:08.466Z,56.56
2022-10-22T23:07:34.834Z,56.67
2022-10-22T23:10:01.192Z,56.46
2022-10-22T23:12:28.857Z,56.60
2022-10-22T23:14:55.236Z,56.50
2022-10-22T23:17:21.611Z,56.43
2022-10-22T23:19:48.025Z,56.65
2022-10-22T23:22:14.412Z,56.74
2022-10-22T23:24:40.815Z,56.57
2022-10-22T23:27:07.195Z,56.74
2022-10-22T23:29:36.339Z,56.59
2022-10-22T23:32:03.800Z,56.74
2022-10-22T23:34:30.906Z,56.56
2022-10-22T23:36:58.404Z,56.47
2022-10-22T23:39:27.948Z,56.62
2022-10-22T23:41:54.379Z,56.63
2022-10-22T23:44:21.714Z,56.72
2022-10-22T23:46:48.170Z,56.56
2022-10-22T23:49:14.626Z,56.63
2022-10-22T23:51:41.022Z,56.57
2022-10-22T23:54:10.938Z,56.51
2022-10-22T23:56:37.335Z,56.51
2022-10-22T23:59:04.309Z,56.49
